Hlavní strana
METAR-TAF:

METAR-TAF

Letiště :

N'Djamena, Čad

zeměpisná šířka: 12-08N, zeměpisná délka: 015-02E, výška: 295 m

Aktuální stav počasí

Zpráva byla vytvořena před 47 minutami, v 10:00 UTC
Severní vítr 11 kt
Teplota 29°C
Vlhkost vzduchu 10%
Tlak 1015 hPa
Viditelnost 10 km a více
Žádná oblačnost pod 1500 m, nevyskytují se cumulonimby.

METAR: FTTJ 181000Z 01011KT CAVOK 29/M06 Q1015 NOSIG

Čas: 11:47 (10:47 UTC)

Předpověď počasí

Zpráva byla vytvořena před 5 hodinami a 47 minutami, v 05:00 UTC
Předpověď platná od 18 v 06 UTC do 19 v 12 UTC
Severní vítr 10 kt
Viditelnost: 6000 m
Změna
od 18 v 13 UTC do 18 v 15 UTC
Viditelnost: 3000 m
rozsáhlý prach
Změna
od 18 v 19 UTC do 18 v 21 UTC
Viditelnost: 1000 m
Dočasný
od 19 v 00 UTC do 19 v 04 UTC
Viditelnost: 0700 m
Změna
od 19 v 05 UTC do 19 v 07 UTC
Viditelnost: 2500 m

TAF: FTTJ 180500Z 1806/1912 01010KT 6000 NSC BECMG 1813/1815 3000 DU BECMG 1819/1821 1000 TEMPO 1900/1904 0700 BECMG 1905/1907 2500

Stav a předpovědi počasí z více než 4 000 letišť (zprávy METAR a TAF).

Červené a žluté tečky na mapě představují dostupné meteorologické stanice.

Když kurzor umístíte na tečku, zobrazí se název stanice.

Pak kliknutím zobrazíte stav a předpověď počasí.

Chcete-li změnit mapu, kliknutím na zelené tlačítko se znaménkem +mapu přiblížíte, kliknutím na zelené tlačítko se znaménkem – mapu oddálíte a kliknutím na zelené šipky přejdete na sousední mapy.


METAR-TAF: